Time;durP1;ratioP1;P1;durP2;ratioP2;P2;SDS_P1;SDS_P2;PMS_P1;PMS_P2;Temp;Humidity;BMP_temperature;BMP_pressure;BME280_temperature;BME280_humidity;BME280_pressure;Samples;Min_cycle;Max_cycle;Signal;HPM_P1;HPM_P2
2023/07/18 00:00:25;;;;;;;6.80;3.05;;;;;;;27.76;31.87;98702.66;5011327;28;20022;-71
2023/07/18 00:02:51;;;;;;;6.13;3.00;;;;;;;29.62;30.00;98699.22;4988248;28;20041;-71
2023/07/18 00:05:17;;;;;;;4.65;3.35;;;;;;;29.20;30.75;98701.66;5011236;28;20026;-71
2023/07/18 00:07:42;;;;;;;4.80;3.17;;;;;;;30.33;28.31;98698.25;5044367;28;20041;-71
2023/07/18 00:10:09;;;;;;;6.93;3.42;;;;;;;29.99;29.57;98697.03;5027820;28;20072;-71
2023/07/18 00:12:35;;;;;;;5.45;3.20;;;;;;;29.90;29.31;98697.19;5044294;28;20038;-71
2023/07/18 00:15:03;;;;;;;7.30;2.80;;;;;;;28.01;32.13;98707.09;5014713;28;20030;-72
2023/07/18 00:17:30;;;;;;;6.90;3.10;;;;;;;28.96;30.57;98701.75;5005528;28;20033;-71
2023/07/18 00:19:55;;;;;;;6.30;3.30;;;;;;;30.27;28.75;98696.91;5015328;28;20030;-71
2023/07/18 00:22:21;;;;;;;5.75;2.97;;;;;;;30.66;27.73;98695.84;5021569;28;20103;-71
2023/07/18 00:24:46;;;;;;;5.18;3.45;;;;;;;31.15;28.05;98699.69;5014869;28;20596;-72
2023/07/18 00:27:16;;;;;;;5.82;3.28;;;;;;;31.37;27.25;98693.34;5016838;28;20042;-72
2023/07/18 00:29:42;;;;;;;7.63;3.50;;;;;;;30.70;28.55;98700.31;5014702;28;20069;-71
2023/07/18 00:32:07;;;;;;;7.82;3.65;;;;;;;30.83;28.10;98692.63;5022445;28;20061;-71
2023/07/18 00:34:32;;;;;;;5.45;3.00;;;;;;;31.55;27.69;98695.69;5031577;28;20083;-72
2023/07/18 00:36:58;;;;;;;7.38;3.20;;;;;;;31.11;27.76;98698.00;5027244;28;20034;-73
2023/07/18 00:39:23;;;;;;;7.57;3.38;;;;;;;30.91;27.72;98691.63;5015193;28;20070;-73
2023/07/18 00:41:49;;;;;;;6.45;3.17;;;;;;;30.18;28.76;98701.84;5017719;28;20107;-73
2023/07/18 00:44:14;;;;;;;5.88;3.42;;;;;;;29.97;29.55;98697.38;5001153;28;20037;-73
2023/07/18 00:46:40;;;;;;;9.85;3.20;;;;;;;30.50;28.94;98698.66;5010619;28;20033;-74
2023/07/18 00:49:05;;;;;;;6.00;3.45;;;;;;;30.37;29.19;98688.03;5014191;28;20041;-73
2023/07/18 00:51:31;;;;;;;7.90;3.80;;;;;;;30.61;29.36;98701.69;5004325;28;20032;-73
2023/07/18 00:53:57;;;;;;;5.60;3.30;;;;;;;30.37;29.30;98690.81;4993728;28;20025;-73
2023/07/18 00:56:23;;;;;;;4.57;3.03;;;;;;;30.27;28.90;98691.34;5004083;28;20388;-74
2023/07/18 00:58:48;;;;;;;5.28;3.17;;;;;;;30.49;29.16;98696.25;5029876;28;20432;-73
2023/07/18 01:01:14;;;;;;;10.45;3.60;;;;;;;29.64;30.23;98694.13;5013759;28;20021;-71
2023/07/18 01:03:39;;;;;;;5.20;3.45;;;;;;;29.80;29.72;98697.72;5013182;28;20498;-71
2023/07/18 01:06:07;;;;;;;7.78;3.40;;;;;;;30.14;29.71;98701.75;5017229;28;20041;-72
2023/07/18 01:08:33;;;;;;;4.63;3.13;;;;;;;29.98;29.36;98699.00;5009901;28;20038;-71
2023/07/18 01:10:59;;;;;;;7.05;3.17;;;;;;;29.98;29.42;98707.34;4994022;28;20022;-72
2023/07/18 01:13:24;;;;;;;6.70;3.50;;;;;;;29.08;30.40;98709.22;4993148;28;20100;-74
2023/07/18 01:15:49;;;;;;;6.20;3.28;;;;;;;29.60;30.18;98704.34;5024317;28;20484;-74
2023/07/18 01:18:15;;;;;;;5.00;3.78;;;;;;;30.22;29.45;98716.63;5031546;28;20049;-71
2023/07/18 01:20:44;;;;;;;6.45;3.03;;;;;;;30.38;29.25;98703.53;5017471;28;20057;-71
2023/07/18 01:23:10;;;;;;;9.50;3.70;;;;;;;30.27;29.38;98703.25;5013090;28;20033;-72
2023/07/18 01:25:36;;;;;;;5.63;3.10;;;;;;;30.36;29.33;98701.13;5007197;28;20032;-72
2023/07/18 01:28:03;;;;;;;5.40;3.50;;;;;;;30.04;30.04;98703.09;5009972;28;20041;-72
2023/07/18 01:30:29;;;;;;;6.88;3.70;;;;;;;30.50;29.81;98703.44;5011237;28;20021;-71
2023/07/18 01:32:56;;;;;;;9.52;3.65;;;;;;;28.26;32.46;98700.41;5013832;28;20041;-71
2023/07/18 01:35:25;;;;;;;5.97;3.22;;;;;;;27.74;33.74;98704.97;5011375;28;20022;-72
2023/07/18 01:37:52;;;;;;;8.38;3.85;;;;;;;28.36;32.42;98721.25;5021436;28;20049;-73
2023/07/18 01:40:21;;;;;;;9.30;3.63;;;;;;;28.27;32.54;98712.25;5009982;28;20025;-73
2023/07/18 01:42:52;;;;;;;8.88;3.72;;;;;;;29.05;31.78;98709.94;5009570;28;20030;-72
2023/07/18 01:45:22;;;;;;;5.57;3.13;;;;;;;29.72;30.85;98701.47;5025121;28;20503;-73
2023/07/18 01:47:49;;;;;;;6.53;3.53;;;;;;;28.26;32.79;98716.22;5013111;28;20033;-73
2023/07/18 01:50:14;;;;;;;5.32;3.50;;;;;;;28.24;32.74;98713.75;5030849;28;20034;-73
2023/07/18 01:52:39;;;;;;;6.38;3.50;;;;;;;29.57;30.30;98699.47;5029337;28;20530;-72
2023/07/18 01:55:05;;;;;;;5.00;3.15;;;;;;;28.73;31.96;98715.34;5016051;28;20502;-73
2023/07/18 01:57:41;;;;;;;8.95;3.55;;;;;;;29.17;31.41;98712.66;5013123;28;20037;-73
2023/07/18 02:00:12;;;;;;;7.07;3.20;;;;;;;28.24;33.05;98713.75;5013055;28;20030;-73
2023/07/18 02:02:40;;;;;;;7.13;3.67;;;;;;;27.59;33.68;98719.47;5002962;28;20042;-72
2023/07/18 02:05:08;;;;;;;9.65;3.35;;;;;;;28.49;32.09;98712.59;5009512;28;20514;-73
2023/07/18 02:07:33;;;;;;;5.57;3.90;;;;;;;29.02;31.50;98713.41;4997048;28;20117;-73
2023/07/18 02:10:01;;;;;;;7.15;3.97;;;;;;;28.67;32.08;98715.94;4980992;28;20033;-74
2023/07/18 02:12:27;;;;;;;6.90;3.40;;;;;;;29.18;31.50;98706.75;5022470;28;20041;-73
2023/07/18 02:14:53;;;;;;;10.20;3.70;;;;;;;28.75;31.85;98713.00;4996142;28;20026;-74
2023/07/18 02:17:18;;;;;;;6.57;3.83;;;;;;;28.79;31.84;98712.31;5013318;28;20455;-74
2023/07/18 02:19:44;;;;;;;9.65;3.60;;;;;;;28.99;31.44;98711.31;5029882;28;20021;-74
2023/07/18 02:22:10;;;;;;;6.97;3.60;;;;;;;29.10;31.27;98706.91;5016467;28;20068;-74
2023/07/18 02:24:35;;;;;;;6.70;3.17;;;;;;;28.27;32.09;98715.84;5032767;28;20021;-74
2023/07/18 02:27:02;;;;;;;6.28;3.65;;;;;;;29.00;31.22;98707.41;4997465;28;20037;-74
2023/07/18 02:29:28;;;;;;;5.18;3.40;;;;;;;28.88;31.51;98707.44;5011921;28;20392;-74
2023/07/18 02:31:53;;;;;;;5.47;4.05;;;;;;;28.59;32.04;98714.91;5025485;28;20083;-73
2023/07/18 02:34:19;;;;;;;7.88;3.50;;;;;;;29.23;30.94;98705.69;5033871;28;20472;-74
2023/07/18 02:36:44;;;;;;;6.10;3.40;;;;;;;28.75;31.72;98701.91;5020347;28;20069;-74
2023/07/18 02:39:10;;;;;;;6.78;3.53;;;;;;;28.12;32.40;98710.22;5028523;28;20120;-74
2023/07/18 02:41:37;;;;;;;7.47;4.38;;;;;;;29.03;31.49;98701.16;5004064;28;20034;-70
2023/07/18 02:44:04;;;;;;;6.45;3.85;;;;;;;28.87;31.89;98703.06;5012424;28;20369;-71
2023/07/18 02:46:29;;;;;;;6.13;4.35;;;;;;;28.77;31.54;98703.56;5006498;28;20049;-70
2023/07/18 02:48:54;;;;;;;5.55;3.88;;;;;;;29.13;31.17;98711.72;5014405;28;20026;-70
2023/07/18 02:51:20;;;;;;;5.97;3.63;;;;;;;29.07;31.48;98702.06;4989156;28;20034;-71
2023/07/18 02:53:45;;;;;;;6.85;3.88;;;;;;;29.46;30.66;98705.91;5028285;28;20029;-71
2023/07/18 02:56:11;;;;;;;7.13;3.65;;;;;;;28.51;32.05;98707.50;5008874;28;20033;-72
2023/07/18 02:58:37;;;;;;;5.40;3.20;;;;;;;28.20;32.53;98706.50;5015603;28;20045;-72
2023/07/18 03:01:03;;;;;;;6.32;3.75;;;;;;;28.48;32.23;98708.22;4989588;28;20045;-72
2023/07/18 03:03:29;;;;;;;6.18;3.83;;;;;;;27.80;33.38;98717.41;5028445;28;20030;-72
2023/07/18 03:05:55;;;;;;;6.18;4.10;;;;;;;27.34;34.25;98708.31;5005893;28;20069;-72
2023/07/18 03:08:20;;;;;;;6.85;3.83;;;;;;;28.48;32.20;98712.94;4995979;28;20052;-71
2023/07/18 03:10:47;;;;;;;6.57;3.78;;;;;;;28.89;31.75;98709.06;5022168;28;20041;-71
2023/07/18 03:13:12;;;;;;;5.88;3.15;;;;;;;28.36;32.29;98713.75;5028853;28;20022;-72
2023/07/18 03:15:39;;;;;;;5.65;2.88;;;;;;;27.24;34.10;98708.75;5005466;28;20037;-71
2023/07/18 03:18:08;;;;;;;9.70;3.13;;;;;;;28.43;32.92;98708.44;5013882;28;20551;-72
2023/07/18 03:20:34;;;;;;;7.00;3.13;;;;;;;27.89;32.75;98709.84;5025564;28;20037;-72
2023/07/18 03:22:59;;;;;;;7.20;3.15;;;;;;;27.41;33.89;98716.09;5014441;28;20088;-71
2023/07/18 03:25:25;;;;;;;4.60;2.58;;;;;;;26.85;35.13;98706.50;5005486;28;20411;-73
2023/07/18 03:27:51;;;;;;;8.07;2.92;;;;;;;27.93;33.31;98716.28;5032160;28;20035;-72
2023/07/18 03:30:17;;;;;;;5.97;3.35;;;;;;;28.30;32.13;98717.94;5015986;28;20048;-73
2023/07/18 03:32:42;;;;;;;4.32;2.67;;;;;;;28.53;32.50;98712.69;5015267;28;20021;-73
2023/07/18 03:35:09;;;;;;;5.03;2.90;;;;;;;29.00;31.61;98712.94;5033459;28;20061;-73
2023/07/18 03:37:35;;;;;;;7.32;3.28;;;;;;;28.31;32.11;98714.00;5031885;28;20029;-74
2023/07/18 03:40:01;;;;;;;10.15;3.22;;;;;;;28.20;32.16;98712.84;4995473;28;20524;-73
2023/07/18 03:42:26;;;;;;;6.38;3.25;;;;;;;27.70;32.59;98715.13;5018958;28;20485;-73
2023/07/18 03:44:52;;;;;;;5.68;3.08;;;;;;;27.22;34.40;98716.56;5011526;28;20045;-73
2023/07/18 03:47:17;;;;;;;4.30;2.85;;;;;;;27.50;33.77;98718.75;5030639;28;20037;-71
2023/07/18 03:49:43;;;;;;;8.95;3.00;;;;;;;28.54;32.07;98722.66;5019419;28;20045;-74
2023/07/18 03:52:08;;;;;;;5.45;3.22;;;;;;;28.92;31.01;98706.38;5031809;28;20021;-73
2023/07/18 03:54:34;;;;;;;4.82;2.70;;;;;;;28.99;31.38;98711.31;5019704;28;20053;-71
2023/07/18 03:57:00;;;;;;;8.32;3.20;;;;;;;29.15;31.08;98717.75;5012967;28;20032;-71
2023/07/18 03:59:25;;;;;;;7.18;3.13;;;;;;;27.10;34.43;98724.00;5003635;28;20033;-70
2023/07/18 04:01:51;;;;;;;4.85;3.15;;;;;;;27.07;34.59;98719.97;5026603;28;20068;-70
2023/07/18 04:04:17;;;;;;;8.55;3.28;;;;;;;27.74;33.70;98721.56;5027633;28;20037;-70
2023/07/18 04:06:45;;;;;;;8.88;2.92;;;;;;;26.53;35.46;98721.88;5013374;28;20095;-70
2023/07/18 04:09:11;;;;;;;7.07;2.78;;;;;;;25.98;36.07;98721.97;5023745;28;20041;-72
2023/07/18 04:11:38;;;;;;;9.05;3.10;;;;;;;26.90;34.23;98717.38;5014478;28;20036;-71
2023/07/18 04:14:03;;;;;;;9.18;3.20;;;;;;;26.19;36.13;98712.97;5018434;28;20038;-71
2023/07/18 04:16:28;;;;;;;6.70;3.00;;;;;;;27.66;33.47;98714.97;5031619;28;20052;-70
2023/07/18 04:18:54;;;;;;;9.27;2.90;;;;;;;27.45;33.82;98716.19;5030891;28;20043;-70
2023/07/18 04:21:19;;;;;;;8.88;3.20;;;;;;;28.00;33.07;98720.16;5030884;28;20033;-70
2023/07/18 04:23:45;;;;;;;5.20;2.90;;;;;;;27.34;34.09;98724.91;5013886;28;20435;-70
2023/07/18 04:26:12;;;;;;;6.40;3.13;;;;;;;27.65;33.67;98718.09;5011916;28;20113;-72
2023/07/18 04:28:38;;;;;;;7.63;2.80;;;;;;;28.03;33.09;98718.63;5020694;28;20120;-74
2023/07/18 04:31:03;;;;;;;11.77;3.25;;;;;;;28.31;32.92;98708.44;5014603;28;20040;-73
2023/07/18 04:33:39;;;;;;;8.50;3.33;;;;;;;29.49;31.93;98714.34;5025315;28;20064;-72
2023/07/18 04:36:05;;;;;;;10.63;2.97;;;;;;;27.78;33.55;98714.19;5015439;28;20041;-72
2023/07/18 04:38:31;;;;;;;4.65;3.08;;;;;;;27.51;34.07;98723.16;5005337;28;20036;-70
2023/07/18 04:40:56;;;;;;;4.07;2.50;;;;;;;27.58;34.19;98723.41;5015081;28;20030;-72
2023/07/18 04:43:22;;;;;;;6.45;2.60;;;;;;;28.26;32.96;98719.78;5010754;28;20695;-71
2023/07/18 04:45:47;;;;;;;6.20;2.92;;;;;;;28.66;32.35;98728.16;5024776;28;20025;-71
2023/07/18 04:48:14;;;;;;;7.55;3.20;;;;;;;28.91;32.57;98726.16;5020945;28;20399;-72
2023/07/18 04:50:41;;;;;;;7.22;3.55;;;;;;;27.06;35.92;98726.66;4994130;28;20034;-72
2023/07/18 04:53:07;;;;;;;6.60;2.80;;;;;;;28.40;33.76;98734.06;5010744;28;20022;-73
2023/07/18 04:55:34;;;;;;;4.78;3.03;;;;;;;28.62;33.15;98733.63;5027071;28;20041;-73
2023/07/18 04:58:00;;;;;;;5.55;3.25;;;;;;;28.06;34.59;98723.47;5011633;28;20104;-73
2023/07/18 05:00:25;;;;;;;6.75;3.20;;;;;;;28.93;32.59;98724.66;5010449;28;20145;-73
2023/07/18 05:02:51;;;;;;;8.25;3.17;;;;;;;28.50;33.67;98733.59;5010224;28;20109;-73
2023/07/18 05:05:17;;;;;;;7.32;3.10;;;;;;;29.16;32.86;98730.44;4997774;28;20128;-73
2023/07/18 05:07:44;;;;;;;6.80;3.00;;;;;;;28.73;33.86;98734.75;4994043;28;20053;-73
2023/07/18 05:10:10;;;;;;;9.48;3.65;;;;;;;27.77;34.50;98734.75;4982208;28;20029;-72
2023/07/18 05:12:35;;;;;;;9.18;3.08;;;;;;;26.54;36.34;98739.22;5004712;28;20562;-73
2023/07/18 05:15:02;;;;;;;7.57;3.30;;;;;;;27.60;34.63;98726.63;5010179;28;20113;-73
2023/07/18 05:17:27;;;;;;;8.35;3.35;;;;;;;28.79;32.87;98724.22;5023462;28;20026;-73
2023/07/18 05:19:53;;;;;;;5.20;3.20;;;;;;;29.67;31.27;98715.63;5026694;28;20038;-73
2023/07/18 05:22:18;;;;;;;6.03;3.42;;;;;;;29.94;31.26;98714.75;4993655;28;20091;-72
2023/07/18 05:24:43;;;;;;;4.85;2.63;;;;;;;29.14;32.40;98724.44;5013749;28;20049;-73
2023/07/18 05:27:09;;;;;;;7.60;2.45;;;;;;;29.34;33.82;98717.91;5011288;28;20032;-73
2023/07/18 05:29:34;;;;;;;7.55;2.53;;;;;;;29.65;32.15;98709.63;5013857;28;20044;-73
2023/07/18 05:32:00;;;;;;;4.35;2.50;;;;;;;30.07;30.89;98707.97;5004123;28;20029;-73
2023/07/18 05:34:26;;;;;;;5.82;2.58;;;;;;;30.17;29.04;98711.34;5016738;28;20025;-73
2023/07/18 05:36:51;;;;;;;5.03;2.92;;;;;;;29.78;30.18;98705.63;5010008;28;20052;-73
2023/07/18 05:39:16;;;;;;;6.72;2.63;;;;;;;29.99;29.11;98711.72;4998147;28;20126;-73
2023/07/18 05:41:42;;;;;;;6.22;2.40;;;;;;;29.89;29.12;98711.47;5015455;28;20025;-74
2023/07/18 05:44:07;;;;;;;5.28;2.25;;;;;;;31.30;27.15;98715.47;5030267;28;20030;-74
2023/07/18 05:46:33;;;;;;;3.65;2.30;;;;;;;31.09;26.98;98714.25;5013941;28;20492;-75
2023/07/18 05:48:58;;;;;;;5.53;2.40;;;;;;;30.89;28.16;98716.25;5017019;28;20037;-74
2023/07/18 05:51:23;;;;;;;4.05;2.40;;;;;;;31.44;27.68;98711.41;5020825;28;20026;-74
2023/07/18 05:53:49;;;;;;;4.03;2.28;;;;;;;29.36;30.21;98721.13;5029870;28;20033;-74
2023/07/18 05:56:14;;;;;;;6.53;2.40;;;;;;;29.68;31.02;98710.88;5026956;28;20064;-74
2023/07/18 05:58:40;;;;;;;6.30;2.45;;;;;;;29.88;30.76;98716.22;5015280;28;20349;-76
2023/07/18 06:01:12;;;;;;;6.85;2.70;;;;;;;31.63;29.19;98711.34;5026404;28;20025;-72
2023/07/18 06:03:37;;;;;;;4.85;2.03;;;;;;;31.13;28.12;98710.38;5034479;28;20492;-73
2023/07/18 06:06:03;;;;;;;7.53;2.15;;;;;;;30.18;29.00;98707.41;5021405;28;20109;-75
2023/07/18 06:08:28;;;;;;;6.22;2.40;;;;;;;30.77;27.77;98697.69;5010437;28;20053;-74
2023/07/18 06:10:57;;;;;;;6.53;2.30;;;;;;;31.73;27.49;98694.84;5023378;28;20032;-73
2023/07/18 06:13:23;;;;;;;5.90;2.30;;;;;;;31.38;27.63;98699.72;5016721;28;20032;-74
2023/07/18 06:15:50;;;;;;;4.80;2.55;;;;;;;29.56;30.88;98699.84;4990850;28;20117;-74
2023/07/18 06:18:16;;;;;;;4.25;2.20;;;;;;;29.69;30.78;98704.97;5033209;28;20041;-71
2023/07/18 06:20:41;;;;;;;5.93;2.40;;;;;;;29.97;30.36;98697.38;5034394;28;20113;-71
2023/07/18 06:23:07;;;;;;;5.93;2.40;;;;;;;29.72;30.68;98693.16;5032403;28;20049;-71
2023/07/18 06:25:32;;;;;;;4.55;2.03;;;;;;;29.47;30.07;98688.94;5020096;28;20034;-71
2023/07/18 06:27:58;;;;;;;3.38;2.13;;;;;;;28.69;31.26;98692.25;5014304;28;20042;-71
2023/07/18 06:30:23;;;;;;;5.63;2.47;;;;;;;28.40;31.56;98702.81;5006522;28;20026;-71
2023/07/18 06:32:49;;;;;;;3.05;2.00;;;;;;;29.49;29.88;98697.69;5020370;28;20335;-71
2023/07/18 06:35:15;;;;;;;4.35;2.50;;;;;;;28.17;31.39;98696.91;5034057;28;20491;-71
2023/07/18 06:37:41;;;;;;;6.45;2.50;;;;;;;28.20;31.12;98700.97;5033961;28;20547;-71
2023/07/18 06:40:09;;;;;;;5.13;2.58;;;;;;;30.29;28.43;98681.47;5032792;28;20602;-71
2023/07/18 06:42:35;;;;;;;3.03;1.98;;;;;;;29.48;28.83;98682.19;5020632;28;20033;-71
2023/07/18 06:45:00;;;;;;;4.90;2.10;;;;;;;30.05;29.02;98682.50;5024703;28;20045;-71
2023/07/18 06:47:26;;;;;;;2.80;2.00;;;;;;;30.02;28.16;98680.44;5032504;28;20541;-71
2023/07/18 06:49:51;;;;;;;3.80;2.17;;;;;;;30.00;29.46;98680.00;5033688;28;20036;-71
2023/07/18 06:52:16;;;;;;;6.07;2.50;;;;;;;30.57;27.82;98686.91;5031815;28;20069;-71
2023/07/18 06:54:42;;;;;;;4.85;2.35;;;;;;;30.64;28.19;98682.28;5019060;28;20021;-71
2023/07/18 06:57:09;;;;;;;5.90;2.00;;;;;;;30.55;27.39;98667.00;5025028;28;20041;-71
2023/07/18 06:59:35;;;;;;;6.00;2.03;;;;;;;29.61;28.49;98667.09;5027914;28;20025;-71
2023/07/18 07:02:00;;;;;;;3.38;2.00;;;;;;;29.48;29.12;98673.88;5033746;28;20120;-70
2023/07/18 07:04:25;;;;;;;5.55;2.25;;;;;;;31.07;27.09;98667.31;5031981;28;20499;-71
2023/07/18 07:06:51;;;;;;;3.45;1.95;;;;;;;30.72;27.01;98669.34;5024962;28;20065;-71
2023/07/18 07:09:16;;;;;;;5.07;2.28;;;;;;;30.80;27.11;98662.75;5023028;28;20026;-70
2023/07/18 07:11:43;;;;;;;4.63;1.85;;;;;;;30.97;27.76;98659.56;5012414;28;20085;-70
2023/07/18 07:14:08;;;;;;;3.17;1.90;;;;;;;30.39;27.92;98660.66;5012695;28;20088;-71
2023/07/18 07:16:34;;;;;;;4.18;2.10;;;;;;;32.27;25.82;98658.31;5025211;28;20046;-72
2023/07/18 07:19:00;;;;;;;3.42;1.83;;;;;;;31.04;27.56;98654.13;5027853;28;20017;-71
2023/07/18 07:21:27;;;;;;;4.43;1.85;;;;;;;31.40;26.08;98650.03;5022962;28;20535;-71
2023/07/18 07:23:52;;;;;;;4.18;1.92;;;;;;;30.46;27.81;98664.41;5012648;28;20033;-71
2023/07/18 07:26:19;;;;;;;4.43;1.75;;;;;;;30.98;26.04;98650.03;5015796;28;20112;-71
2023/07/18 07:28:45;;;;;;;4.63;1.80;;;;;;;30.67;27.68;98647.38;5042114;28;20021;-71
2023/07/18 07:31:10;;;;;;;3.20;2.08;;;;;;;32.23;24.56;98646.28;5033128;28;20043;-71
2023/07/18 07:33:36;;;;;;;3.70;2.10;;;;;;;33.46;22.64;98632.28;5015003;28;20112;-71
2023/07/18 07:36:01;;;;;;;5.65;1.90;;;;;;;33.66;21.42;98628.91;5028272;28;20041;-71
2023/07/18 07:38:27;;;;;;;3.33;1.70;;;;;;;32.02;23.63;98640.41;5013007;28;20105;-71
2023/07/18 07:40:52;;;;;;;5.57;1.73;;;;;;;33.58;21.38;98632.84;5013240;28;20038;-71
2023/07/18 07:43:18;;;;;;;3.40;1.80;;;;;;;31.05;23.68;98625.13;5012827;28;20037;-71
2023/07/18 07:45:43;;;;;;;4.55;1.90;;;;;;;32.80;22.07;98624.75;5028307;28;20037;-71
2023/07/18 07:48:08;;;;;;;4.25;1.80;;;;;;;31.57;22.89;98629.28;5012949;28;20080;-71
2023/07/18 07:50:34;;;;;;;2.83;1.58;;;;;;;33.94;20.96;98617.94;5010940;28;20045;-71
2023/07/18 07:53:00;;;;;;;3.03;1.55;;;;;;;32.17;21.43;98625.50;5020469;28;20490;-71
2023/07/18 07:55:27;;;;;;;2.50;1.50;;;;;;;33.52;20.05;98617.56;5030409;28;20116;-71
2023/07/18 07:57:53;;;;;;;3.03;1.70;;;;;;;33.52;20.33;98611.97;5018651;28;20412;-71
2023/07/18 08:00:19;;;;;;;4.22;1.50;;;;;;;32.76;21.94;98619.16;5027291;28;20037;-71
2023/07/18 08:02:45;;;;;;;3.15;1.70;;;;;;;33.61;20.92;98609.69;5010306;28;20552;-71
2023/07/18 08:05:10;;;;;;;3.15;2.10;;;;;;;31.41;22.67;98616.25;5030379;28;20112;-71
2023/07/18 08:07:36;;;;;;;2.92;1.45;;;;;;;32.68;21.72;98607.09;5018670;28;20747;-71
2023/07/18 08:10:02;;;;;;;3.10;1.67;;;;;;;33.27;21.04;98588.63;5031580;28;20170;-71
2023/07/18 08:12:28;;;;;;;4.47;1.70;;;;;;;32.65;20.94;98596.69;5014537;28;20031;-71
2023/07/18 08:14:53;;;;;;;3.10;1.45;;;;;;;32.37;22.31;98601.88;5032032;28;20116;-71
2023/07/18 08:17:19;;;;;;;4.10;1.52;;;;;;;34.63;20.71;98590.03;5018764;28;20030;-70
2023/07/18 08:19:44;;;;;;;4.78;1.70;;;;;;;31.61;23.66;98602.28;5024160;28;20042;-70
2023/07/18 08:22:09;;;;;;;3.92;1.70;;;;;;;32.72;22.29;98591.19;5010721;28;20034;-70
2023/07/18 08:24:35;;;;;;;3.70;1.40;;;;;;;34.67;20.53;98588.03;5024485;28;20045;-71
2023/07/18 08:27:00;;;;;;;3.25;1.65;;;;;;;31.70;22.95;98588.91;5011771;28;20491;-70
2023/07/18 08:29:32;;;;;;;2.53;1.52;;;;;;;33.73;21.35;98584.25;5010313;28;20038;-71
2023/07/18 08:31:58;;;;;;;3.15;1.90;;;;;;;31.21;23.74;98594.41;5020383;28;20503;-71
2023/07/18 08:34:24;;;;;;;5.85;2.10;;;;;;;33.19;22.21;98586.94;5011859;28;20496;-71
2023/07/18 08:36:49;;;;;;;4.07;1.77;;;;;;;33.95;20.99;98579.63;5024036;28;20140;-71
2023/07/18 08:39:15;;;;;;;4.97;1.88;;;;;;;31.66;23.03;98588.03;5031662;28;20025;-70
2023/07/18 08:41:45;;;;;;;2.65;1.60;;;;;;;33.84;21.71;98575.97;5022659;28;20079;-70
2023/07/18 08:44:15;;;;;;;2.63;1.58;;;;;;;34.83;20.51;98566.09;5022940;28;20104;-70
2023/07/18 08:46:47;;;;;;;2.15;1.50;;;;;;;32.95;22.66;98579.09;5022056;28;20045;-70
2023/07/18 08:49:15;;;;;;;5.00;1.95;;;;;;;34.82;20.63;98572.91;4995151;28;20033;-70
2023/07/18 08:51:41;;;;;;;4.30;1.50;;;;;;;35.11;20.33;98562.59;5010520;28;20698;-70
2023/07/18 08:54:07;;;;;;;5.22;1.75;;;;;;;35.15;21.00;98552.97;5016295;28;20038;-70
2023/07/18 08:56:32;;;;;;;2.00;1.30;;;;;;;34.46;20.28;98557.16;5023147;28;20036;-70
2023/07/18 08:59:00;;;;;;;3.53;1.50;;;;;;;35.90;19.97;98548.19;5010225;28;20045;-71
2023/07/18 09:01:25;;;;;;;4.05;1.88;;;;;;;36.43;18.38;98548.84;5010351;28;20029;-75
2023/07/18 09:03:51;;;;;;;3.95;1.80;;;;;;;36.64;19.07;98543.16;5010163;28;20121;-75
2023/07/18 09:06:18;;;;;;;2.92;1.70;;;;;;;36.51;19.13;98546.84;5010623;28;20040;-75
2023/07/18 09:08:44;;;;;;;3.50;1.80;;;;;;;37.54;17.92;98539.41;5023254;28;20091;-75
2023/07/18 09:11:12;;;;;;;6.38;1.70;;;;;;;35.62;19.46;98534.19;5026975;28;20120;-70
2023/07/18 09:13:39;;;;;;;4.40;1.80;;;;;;;32.35;22.75;98545.66;5009817;28;20049;-71
2023/07/18 09:16:18;;;;;;;3.58;1.58;;;;;;;32.82;22.59;98544.25;5008974;28;20021;-72
2023/07/18 09:18:47;;;;;;;3.58;1.60;;;;;;;33.11;23.54;98535.00;5021761;28;20087;-71
2023/07/18 09:21:12;;;;;;;3.33;1.90;;;;;;;32.85;22.40;98526.75;5012850;28;20026;-71
2023/07/18 09:23:42;;;;;;;4.05;1.80;;;;;;;34.81;21.84;98529.31;5017244;28;20049;-71
2023/07/18 09:26:11;;;;;;;2.83;1.60;;;;;;;33.67;21.68;98524.34;5009545;28;21323;-71
2023/07/18 09:28:36;;;;;;;3.58;1.70;;;;;;;36.78;19.00;98514.22;5011214;28;20049;-71
2023/07/18 09:31:02;;;;;;;5.47;1.90;;;;;;;33.01;22.17;98521.72;4993631;28;20030;-71
2023/07/18 09:33:28;;;;;;;3.38;1.85;;;;;;;34.63;20.57;98514.47;5011031;28;20761;-71
2023/07/18 09:35:58;;;;;;;5.13;1.95;;;;;;;33.64;21.88;98508.34;5009934;28;20049;-71
2023/07/18 09:38:23;;;;;;;5.57;2.13;;;;;;;34.73;20.13;98508.06;5022652;28;20033;-71
2023/07/18 09:40:49;;;;;;;3.47;1.60;;;;;;;35.05;20.21;98497.78;5010587;28;20081;-71
2023/07/18 09:43:16;;;;;;;4.97;2.08;;;;;;;33.29;23.01;98491.28;5029203;28;20034;-71
2023/07/18 09:45:42;;;;;;;4.53;1.77;;;;;;;33.92;22.39;98497.31;5021391;28;20027;-71
2023/07/18 09:48:10;;;;;;;3.13;1.80;;;;;;;34.03;21.94;98498.22;5025081;28;20043;-71
2023/07/18 09:50:37;;;;;;;3.25;1.45;;;;;;;35.10;20.86;98488.19;5010742;28;20088;-71
2023/07/18 09:53:09;;;;;;;3.75;1.67;;;;;;;33.86;21.46;98487.72;5019155;28;20046;-71
2023/07/18 09:55:35;;;;;;;2.50;1.60;;;;;;;33.92;21.31;98480.56;5016925;28;20040;-71
2023/07/18 09:58:01;;;;;;;3.25;1.58;;;;;;;33.96;20.74;98481.38;5013058;28;20033;-71
2023/07/18 10:00:26;;;;;;;2.47;1.30;;;;;;;35.41;19.50;98492.97;5022888;28;20058;-71
2023/07/18 10:02:52;;;;;;;7.55;1.77;;;;;;;36.22;19.25;98484.44;5019395;28;20517;-71
2023/07/18 10:05:19;;;;;;;3.78;1.90;;;;;;;33.63;21.76;98478.78;5009698;28;20038;-71
2023/07/18 10:07:45;;;;;;;3.47;1.48;;;;;;;34.25;20.89;98471.16;5009752;28;20060;-71
2023/07/18 10:10:10;;;;;;;3.60;1.70;;;;;;;34.79;21.05;98467.31;5009859;28;20065;-71
2023/07/18 10:12:37;;;;;;;3.63;1.75;;;;;;;33.00;22.58;98461.50;5010792;28;20512;-71
2023/07/18 10:15:04;;;;;;;6.07;1.92;;;;;;;35.42;21.02;98467.34;5009524;28;20033;-71
2023/07/18 10:17:40;;;;;;;3.10;1.48;;;;;;;36.28;18.78;98454.72;5009524;28;20033;-71
2023/07/18 10:20:22;;;;;;;4.85;1.88;;;;;;;35.90;19.64;98452.84;5009683;28;20113;-71
2023/07/18 10:22:57;;;;;;;4.50;1.83;;;;;;;36.21;19.44;98443.53;5009236;28;20026;-71
2023/07/18 10:25:26;;;;;;;4.90;1.80;;;;;;;36.18;20.07;98452.75;5001871;28;20480;-71
2023/07/18 10:27:51;;;;;;;5.60;1.75;;;;;;;35.02;20.39;98439.75;5029352;28;20464;-71
2023/07/18 10:30:19;;;;;;;5.88;2.13;;;;;;;34.77;21.39;98441.72;5025436;28;20041;-71
2023/07/18 10:32:52;;;;;;;4.85;1.95;;;;;;;35.26;21.14;98449.34;5016560;28;20395;-71
2023/07/18 10:35:19;;;;;;;4.68;2.00;;;;;;;34.29;21.57;98448.78;5027204;28;20041;-71
2023/07/18 10:37:49;;;;;;;3.17;1.92;;;;;;;35.26;21.24;98450.16;5032691;28;20498;-71
2023/07/18 10:40:35;;;;;;;4.70;2.13;;;;;;;34.96;21.93;98444.13;5018105;28;20121;-71
2023/07/18 10:43:01;;;;;;;;;;;;;;;35.30;20.45;98436.13;5014340;28;20041;-71
2023/07/18 10:45:34;;;;;;;3.15;1.88;;;;;;;35.69;20.96;98433.28;5027026;28;20360;-71
2023/07/18 10:48:00;;;;;;;4.53;1.90;;;;;;;33.35;22.11;98440.25;5024906;28;20244;-71
2023/07/18 10:50:25;;;;;;;4.28;2.45;;;;;;;34.74;20.48;98437.72;5032536;28;20053;-71
2023/07/18 10:52:50;;;;;;;4.13;2.08;;;;;;;35.89;20.21;98445.66;5033622;28;20044;-71
2023/07/18 10:55:16;;;;;;;3.75;2.03;;;;;;;33.54;21.30;98436.41;5033675;28;20025;-71
2023/07/18 10:57:42;;;;;;;3.97;1.92;;;;;;;34.22;21.53;98443.16;5033807;28;20045;-72
2023/07/18 11:00:08;;;;;;;6.00;2.30;;;;;;;34.77;20.55;98441.72;5013983;28;20088;-71
2023/07/18 11:02:44;;;;;;;3.97;1.83;;;;;;;34.91;21.87;98438.13;5025596;28;20555;-71
2023/07/18 11:05:12;;;;;;;3.45;1.90;;;;;;;36.54;19.15;98414.91;5012335;28;20030;-71
2023/07/18 11:07:42;;;;;;;5.72;2.20;;;;;;;36.76;18.72;98414.75;5042400;28;20025;-71
2023/07/18 11:10:09;;;;;;;2.53;1.83;;;;;;;34.52;21.39;98419.28;5024795;28;20037;-71
2023/07/18 11:12:34;;;;;;;2.75;2.03;;;;;;;36.72;19.44;98409.97;5007909;28;20753;-71
2023/07/18 11:15:02;;;;;;;4.97;2.10;;;;;;;36.82;20.24;98413.09;5033208;28;20108;-71
2023/07/18 11:17:28;;;;;;;5.32;2.33;;;;;;;35.29;21.10;98423.31;5017227;28;20025;-71
2023/07/18 11:19:56;;;;;;;5.40;2.28;;;;;;;35.93;19.30;98418.38;5020134;28;20522;-72
2023/07/18 11:22:22;;;;;;;5.20;2.63;;;;;;;36.30;20.56;98415.81;5033070;28;20036;-71
2023/07/18 11:24:47;;;;;;;4.28;1.83;;;;;;;35.79;19.99;98410.03;4995465;28;20034;-71
2023/07/18 11:27:18;;;;;;;6.93;2.00;;;;;;;36.21;20.35;98398.66;5013282;28;20037;-71
2023/07/18 11:30:04;;;;;;;4.45;1.90;;;;;;;38.34;18.00;98389.84;5012131;28;20037;-71